หน้าหลัก
METAR-TAF:

METAR-TAF

ท่าอากาศยาน :

Chugiak, อะแลสกา, สหรัฐอเมริกา

ละติจูด: 61-25N, ลองจิจูด: 149-31W, ความสูง: 29 ม.

การสังเกตสภาพอากาศปัจจุบัน

รายงานได้ทำขึ้นเมื่อ 35 นาทีที่แล้ว ณ เวลา 21:56 UTC
ลม 3 นอตจากตะวันตกเฉียงเหนือ
อุณหภูมิ 11°C
ความชื้น 54%
ความกดอากาศ 1006 hPa
ทัศนวิสัย: 16.1 กม.
มีเมฆมาก มืดครึ้มที่ความสูง 6000 ฟุต

METAR: PABV 242156Z AUTO 31003KT 10SM OVC060 11/02 A2970 RMK AO2 SLP062 T01060022

เวลา: 14:31 (22:31 UTC)


TAF: หายไป

สังเกตการณ์สภาพอากาศและพยากรณ์อากาศของสนามบินมากกว่า 4000 แห่ง (รายงาน METAR และ TAF).

สถานีที่ดูได้จะแสดงไว้ด้วยจุดสีเหลืองและสีแดงบนแผนที่.

เลื่อนเมาส์ไปเหนือจุดเพื่อดูชื่อสถานี.

แล้วคลิกเพื่อดูสังเกตการณ์และการพยากรณ์สภาพอากาศ.

ในการเปลี่ยนแผนที่: คลิกที่ปุ่มสีเขียวที่มีกากบาทสีดำเพื่อซูมเข้า; ที่ปุ่มสีเขียวที่มีขีดเพื่อซูมออก; หรือที่ลูกศรสีเขียวเพื่อไปยังแผนที่ที่อยู่ติดกัน.


METAR-TAF: